Time;durP1;ratioP1;P1;durP2;ratioP2;P2;SDS_P1;SDS_P2;PMS_P1;PMS_P2;Temp;Humidity;BMP_temperature;BMP_pressure;BME280_temperature;BME280_humidity;BME280_pressure;Samples;Min_cycle;Max_cycle;Signal;HPM_P1;HPM_P2
2022/12/26 00:00:57;;;;;;;75.15;37.05;;;;;;;;;;4906891;29;20056;-87
2022/12/26 00:03:24;;;;;;;76.88;38.83;;;;;;;;;;4907001;29;20122;-88
2022/12/26 00:05:50;;;;;;;60.92;35.00;;;;;;;;;;4923553;29;20028;-88
2022/12/26 00:08:16;;;;;;;65.40;35.85;;;;;;;;;;4923351;29;20028;-88
2022/12/26 00:10:42;;;;;;;69.93;35.30;;;;;;;;;;4907095;29;20466;-88
2022/12/26 00:13:08;;;;;;;61.08;33.83;;;;;;;;;;4906704;29;20055;-87
2022/12/26 00:15:34;;;;;;;59.35;33.25;;;;;;;;;;4923225;29;20332;-88
2022/12/26 00:18:00;;;;;;;65.13;33.78;;;;;;;;;;4923479;29;20393;-88
2022/12/26 00:20:26;;;;;;;48.25;32.15;;;;;;;;;;4923163;29;20431;-88
2022/12/26 00:22:53;;;;;;;46.83;30.05;;;;;;;;;;4906738;29;20407;-88
2022/12/26 00:25:19;;;;;;;53.08;32.05;;;;;;;;;;4923451;29;20040;-87
2022/12/26 00:27:45;;;;;;;55.53;32.80;;;;;;;;;;4912807;29;20035;-87
2022/12/26 00:30:11;;;;;;;58.00;33.42;;;;;;;;;;4904011;29;20052;-87
2022/12/26 00:32:37;;;;;;;55.83;32.83;;;;;;;;;;4903928;29;20041;-87
2022/12/26 00:35:03;;;;;;;63.75;34.13;;;;;;;;;;4887577;29;20028;-86
2022/12/26 00:37:29;;;;;;;55.72;32.13;;;;;;;;;;4887719;29;20033;-87
2022/12/26 00:39:56;;;;;;;61.38;33.15;;;;;;;;;;4887635;29;20025;-86
2022/12/26 00:42:22;;;;;;;60.08;32.85;;;;;;;;;;4904328;29;20028;-88
2022/12/26 00:44:48;;;;;;;65.47;34.35;;;;;;;;;;4903799;29;20031;-87
2022/12/26 00:47:14;;;;;;;64.95;34.65;;;;;;;;;;4903848;29;20455;-87
2022/12/26 00:49:40;;;;;;;67.78;34.85;;;;;;;;;;4903810;29;20384;-87
2022/12/26 00:52:06;;;;;;;64.30;34.95;;;;;;;;;;4887373;29;20044;-86
2022/12/26 00:54:32;;;;;;;77.30;38.53;;;;;;;;;;4903927;29;20056;-87
2022/12/26 00:56:58;;;;;;;86.15;41.00;;;;;;;;;;4906314;29;20033;-87
2022/12/26 00:59:24;;;;;;;88.10;40.53;;;;;;;;;;4922910;29;20032;-86
2022/12/26 01:01:50;;;;;;;84.78;41.78;;;;;;;;;;4905834;29;20074;-86
2022/12/26 01:04:16;;;;;;;62.92;36.30;;;;;;;;;;4922314;29;20028;-87
2022/12/26 01:06:42;;;;;;;65.90;37.25;;;;;;;;;;4905647;29;20072;-87
2022/12/26 01:09:11;;;;;;;67.78;37.53;;;;;;;;;;4922331;29;20051;-86
2022/12/26 01:11:40;;;;;;;67.95;37.25;;;;;;;;;;4922558;29;20415;-86
2022/12/26 01:14:07;;;;;;;57.90;35.13;;;;;;;;;;4905672;29;20072;-86
2022/12/26 01:19:37;;;;;;;59.67;35.30;;;;;;;;;;4922293;29;20059;-86
2022/12/26 01:22:03;;;;;;;57.45;33.88;;;;;;;;;;4921967;29;20028;-85
2022/12/26 01:24:29;;;;;;;61.85;35.42;;;;;;;;;;4921898;29;20028;-87
2022/12/26 01:26:55;;;;;;;54.95;34.10;;;;;;;;;;4905332;29;20029;-87
2022/12/26 01:29:21;;;;;;;54.78;33.53;;;;;;;;;;4922255;29;20068;-88
2022/12/26 01:31:47;;;;;;;56.08;31.50;;;;;;;;;;4905280;29;20422;-87
2022/12/26 01:34:13;;;;;;;65.68;35.95;;;;;;;;;;4905020;29;20044;-86
2022/12/26 01:36:39;;;;;;;64.20;33.70;;;;;;;;;;4904785;29;20059;-86
2022/12/26 01:39:05;;;;;;;64.72;34.10;;;;;;;;;;4905092;29;20028;-88
2022/12/26 01:41:32;;;;;;;62.42;33.97;;;;;;;;;;4920757;29;20032;-87
2022/12/26 01:44:02;;;;;;;65.28;35.20;;;;;;;;;;4921603;29;20036;-87
2022/12/26 01:46:43;;;;;;;54.28;30.73;;;;;;;;;;4904653;29;20067;-86
2022/12/26 01:49:16;;;;;;;57.77;32.13;;;;;;;;;;4908701;29;20031;-87
2022/12/26 01:51:44;;;;;;;53.38;31.17;;;;;;;;;;4904608;29;20035;-87
2022/12/26 01:54:11;;;;;;;54.42;31.33;;;;;;;;;;4921488;29;20036;-87
2022/12/26 01:56:38;;;;;;;61.72;33.13;;;;;;;;;;4921778;29;20039;-86
2022/12/26 01:59:09;;;;;;;50.22;29.48;;;;;;;;;;4921854;29;20028;-87
2022/12/26 02:01:37;;;;;;;48.10;29.65;;;;;;;;;;4920923;29;20071;-86
2022/12/26 02:06:51;;;;;;;53.35;31.85;;;;;;;;;;4920439;29;20371;-86
2022/12/26 02:09:18;;;;;;;56.53;31.98;;;;;;;;;;4920980;29;20036;-86
2022/12/26 02:11:47;;;;;;;50.42;31.40;;;;;;;;;;4921601;29;20028;-88
2022/12/26 02:14:13;;;;;;;55.95;31.50;;;;;;;;;;4921524;29;20083;-87
2022/12/26 02:16:58;;;;;;;46.58;30.33;;;;;;;;;;4904377;29;20047;-87
2022/12/26 02:19:26;;;;;;;46.58;29.67;;;;;;;;;;4920866;29;20052;-87
2022/12/26 02:22:02;;;;;;;47.65;28.85;;;;;;;;;;4904437;29;20032;-87
2022/12/26 02:24:47;;;;;;;48.03;29.30;;;;;;;;;;4904203;29;20072;-87
2022/12/26 02:27:16;;;;;;;43.30;28.02;;;;;;;;;;4920961;29;20411;-87
2022/12/26 02:29:54;;;;;;;44.58;28.15;;;;;;;;;;4920996;29;20091;-88
2022/12/26 02:32:39;;;;;;;49.28;28.92;;;;;;;;;;4904523;29;20427;-87
2022/12/26 02:35:23;;;;;;;44.42;28.08;;;;;;;;;;4908042;29;20024;-87
2022/12/26 02:37:49;;;;;;;45.50;28.08;;;;;;;;;;4904216;29;20419;-87
2022/12/26 02:40:25;;;;;;;44.20;29.00;;;;;;;;;;4920789;29;20040;-87
2022/12/26 02:43:14;;;;;;;41.38;26.85;;;;;;;;;;4904378;29;20071;-88
2022/12/26 03:14:14;;;;;;;38.97;26.33;;;;;;;;;;4924730;29;20047;-86
2022/12/26 03:19:59;;;;;;;37.97;24.95;;;;;;;;;;4866349;29;20056;-87
2022/12/26 03:22:30;;;;;;;40.45;25.85;;;;;;;;;;4866221;29;20037;-87
2022/12/26 03:27:42;;;;;;;39.88;25.25;;;;;;;;;;4866589;29;20048;-86
2022/12/26 03:32:58;;;;;;;38.85;25.13;;;;;;;;;;4866286;29;20460;-86
2022/12/26 03:35:27;;;;;;;32.92;23.75;;;;;;;;;;4865868;29;20046;-85
2022/12/26 03:37:56;;;;;;;38.63;25.70;;;;;;;;;;4866178;29;20115;-86
2022/12/26 04:20:54;;;;;;;39.17;25.13;;;;;;;;;;4815489;29;20070;-86
2022/12/26 04:51:37;;;;;;;37.30;23.30;;;;;;;;;;4828787;29;20056;-87
2022/12/26 04:54:03;;;;;;;33.92;24.15;;;;;;;;;;4828416;29;20034;-87
2022/12/26 04:56:29;;;;;;;33.75;24.70;;;;;;;;;;4888213;29;20032;-87
2022/12/26 04:58:55;;;;;;;34.90;23.73;;;;;;;;;;4922631;29;20031;-87
2022/12/26 05:09:38;;;;;;;40.03;27.58;;;;;;;;;;4922679;29;20343;-87
2022/12/26 05:12:06;;;;;;;43.53;27.20;;;;;;;;;;4922451;29;20035;-86
2022/12/26 05:14:34;;;;;;;39.67;26.30;;;;;;;;;;4922383;29;20054;-87
2022/12/26 05:30:47;;;;;;;35.50;24.17;;;;;;;;;;4922276;29;20379;-86
2022/12/26 05:35:58;;;;;;;37.28;24.92;;;;;;;;;;4922499;29;20358;-86
2022/12/26 05:38:24;;;;;;;37.55;25.25;;;;;;;;;;4921820;29;20036;-87
2022/12/26 05:40:50;;;;;;;37.33;25.42;;;;;;;;;;4921773;29;20305;-87
2022/12/26 05:43:18;;;;;;;40.60;27.08;;;;;;;;;;4921991;29;20327;-87
2022/12/26 05:45:44;;;;;;;37.85;24.98;;;;;;;;;;4921681;29;20020;-87
2022/12/26 05:48:10;;;;;;;39.95;27.02;;;;;;;;;;4905227;29;20028;-87
2022/12/26 05:50:36;;;;;;;45.63;28.92;;;;;;;;;;4905129;29;20028;-87
2022/12/26 05:53:03;;;;;;;51.55;30.85;;;;;;;;;;4905041;29;20036;-87
2022/12/26 05:55:29;;;;;;;50.47;32.72;;;;;;;;;;4921736;29;20048;-88
2022/12/26 05:57:56;;;;;;;49.88;31.40;;;;;;;;;;4921615;29;20356;-87
2022/12/26 06:00:34;;;;;;;47.50;31.15;;;;;;;;;;4905223;29;20407;-87
2022/12/26 06:03:01;;;;;;;46.72;29.08;;;;;;;;;;4905079;29;20122;-87
2022/12/26 06:05:27;;;;;;;44.25;30.40;;;;;;;;;;4921294;29;20020;-87
2022/12/26 06:07:53;;;;;;;51.40;28.70;;;;;;;;;;4904733;29;20064;-87
2022/12/26 06:10:20;;;;;;;46.58;28.08;;;;;;;;;;4921436;29;20028;-87
2022/12/26 06:12:46;;;;;;;45.20;29.08;;;;;;;;;;4921597;29;20032;-87
2022/12/26 06:15:12;;;;;;;45.10;29.35;;;;;;;;;;4921563;29;20032;-87
2022/12/26 06:17:38;;;;;;;52.40;31.67;;;;;;;;;;4904012;29;20044;-87
2022/12/26 06:20:05;;;;;;;51.67;31.60;;;;;;;;;;4921732;29;20054;-87
2022/12/26 06:22:31;;;;;;;48.65;31.65;;;;;;;;;;4921363;29;20040;-87
2022/12/26 06:24:57;;;;;;;59.80;34.13;;;;;;;;;;4921287;29;20055;-87
2022/12/26 06:27:23;;;;;;;49.65;31.50;;;;;;;;;;4920817;29;20327;-88
2022/12/26 06:29:49;;;;;;;56.10;32.80;;;;;;;;;;4921248;29;20064;-87
2022/12/26 06:32:15;;;;;;;53.42;32.50;;;;;;;;;;4904050;29;20066;-88
2022/12/26 06:34:41;;;;;;;58.33;33.75;;;;;;;;;;4920901;29;20024;-87
2022/12/26 06:37:07;;;;;;;54.72;33.40;;;;;;;;;;4904427;29;20032;-88
2022/12/26 06:39:33;;;;;;;49.95;32.20;;;;;;;;;;4904042;29;20067;-87
2022/12/26 06:42:00;;;;;;;58.30;33.72;;;;;;;;;;4903485;29;20036;-87
2022/12/26 06:44:26;;;;;;;55.92;35.03;;;;;;;;;;4921076;29;20025;-86
2022/12/26 06:46:52;;;;;;;52.00;31.58;;;;;;;;;;4904457;29;20032;-88
2022/12/26 06:49:18;;;;;;;53.80;32.17;;;;;;;;;;4904611;29;20071;-87
2022/12/26 06:51:44;;;;;;;47.53;31.38;;;;;;;;;;4921193;29;20032;-86
2022/12/26 06:54:10;;;;;;;54.20;32.83;;;;;;;;;;4904314;29;20404;-87
2022/12/26 06:56:36;;;;;;;54.15;33.85;;;;;;;;;;4904379;29;20037;-87
2022/12/26 06:59:04;;;;;;;51.28;31.15;;;;;;;;;;4921151;29;20059;-87
2022/12/26 07:01:31;;;;;;;57.92;34.72;;;;;;;;;;4920754;29;20111;-87
2022/12/26 07:03:58;;;;;;;60.00;35.53;;;;;;;;;;4920851;29;20032;-87
2022/12/26 07:06:26;;;;;;;57.55;34.30;;;;;;;;;;4903935;29;20119;-87
2022/12/26 07:08:53;;;;;;;55.75;34.13;;;;;;;;;;4903993;29;20028;-87
2022/12/26 07:11:24;;;;;;;57.08;34.75;;;;;;;;;;4903647;29;20079;-87
2022/12/26 07:13:51;;;;;;;51.28;32.70;;;;;;;;;;4920887;29;20028;-88
2022/12/26 07:16:17;;;;;;;53.63;33.38;;;;;;;;;;4920946;29;20043;-86
2022/12/26 07:18:44;;;;;;;63.47;35.97;;;;;;;;;;4920694;29;21481;-87
2022/12/26 07:21:12;;;;;;;62.42;36.13;;;;;;;;;;4903242;29;20051;-87
2022/12/26 07:23:38;;;;;;;73.93;38.22;;;;;;;;;;4904260;29;20054;-88
2022/12/26 07:26:04;;;;;;;61.08;35.70;;;;;;;;;;4921079;29;20031;-87
2022/12/26 07:28:30;;;;;;;64.45;36.05;;;;;;;;;;4920869;29;20072;-88
2022/12/26 07:30:58;;;;;;;66.15;38.00;;;;;;;;;;4903309;29;20424;-88
2022/12/26 07:33:24;;;;;;;68.72;37.72;;;;;;;;;;4920471;29;20076;-87
2022/12/26 07:35:50;;;;;;;57.58;34.72;;;;;;;;;;4903465;29;20063;-87
2022/12/26 07:38:16;;;;;;;57.50;35.67;;;;;;;;;;4903125;29;20033;-87
2022/12/26 07:40:42;;;;;;;59.33;37.45;;;;;;;;;;4905917;29;20067;-87
2022/12/26 07:43:08;;;;;;;60.90;37.10;;;;;;;;;;4907017;29;20070;-87
2022/12/26 07:45:34;;;;;;;60.80;38.05;;;;;;;;;;4906799;29;20145;-87
2022/12/26 07:48:01;;;;;;;74.35;44.58;;;;;;;;;;4923764;29;20040;-88
2022/12/26 07:50:27;;;;;;;88.05;56.78;;;;;;;;;;4906644;29;20047;-87
2022/12/26 07:52:53;;;;;;;91.80;61.25;;;;;;;;;;4924111;29;20032;-87
2022/12/26 07:55:20;;;;;;;82.65;53.92;;;;;;;;;;4907055;29;20093;-88
2022/12/26 07:57:50;;;;;;;73.82;46.20;;;;;;;;;;4906987;29;20020;-87
2022/12/26 08:00:17;;;;;;;78.53;48.35;;;;;;;;;;4923633;29;20115;-87
2022/12/26 08:02:43;;;;;;;66.93;42.97;;;;;;;;;;4906737;29;20028;-86
2022/12/26 08:05:09;;;;;;;65.68;41.63;;;;;;;;;;4906858;29;20016;-86
2022/12/26 08:07:35;;;;;;;64.78;40.38;;;;;;;;;;4923451;29;20028;-86
2022/12/26 08:10:01;;;;;;;71.75;44.28;;;;;;;;;;4923562;29;20032;-85
2022/12/26 08:12:28;;;;;;;74.82;45.67;;;;;;;;;;4923932;29;20039;-86
2022/12/26 08:14:54;;;;;;;84.28;51.53;;;;;;;;;;4923615;29;20144;-87
2022/12/26 08:17:20;;;;;;;107.65;54.70;;;;;;;;;;4923233;29;20040;-88
2022/12/26 08:19:46;;;;;;;143.57;73.25;;;;;;;;;;4923206;29;20496;-86
2022/12/26 08:22:12;;;;;;;189.63;95.80;;;;;;;;;;4922954;29;20039;-87
2022/12/26 08:24:38;;;;;;;150.02;79.95;;;;;;;;;;4923283;29;20039;-86
2022/12/26 08:27:04;;;;;;;100.15;56.08;;;;;;;;;;4906513;29;20029;-87
2022/12/26 08:29:30;;;;;;;97.85;58.28;;;;;;;;;;4905905;29;20040;-87
2022/12/26 08:32:14;;;;;;;99.03;60.28;;;;;;;;;;4905908;29;20040;-86
2022/12/26 08:34:40;;;;;;;69.40;43.85;;;;;;;;;;4922946;29;20024;-86
2022/12/26 08:37:07;;;;;;;71.90;44.80;;;;;;;;;;4929849;29;20020;-85
2022/12/26 08:39:33;;;;;;;74.85;47.05;;;;;;;;;;4941535;29;20333;-86
2022/12/26 08:41:59;;;;;;;71.18;43.03;;;;;;;;;;4925033;29;20032;-86
2022/12/26 08:44:25;;;;;;;69.53;40.95;;;;;;;;;;4941853;29;20055;-88
2022/12/26 08:46:51;;;;;;;70.25;43.13;;;;;;;;;;4941827;29;20056;-87
2022/12/26 08:49:17;;;;;;;64.05;40.13;;;;;;;;;;4925137;29;20039;-87
2022/12/26 08:51:43;;;;;;;62.17;40.67;;;;;;;;;;4941311;29;20074;-88
2022/12/26 08:54:09;;;;;;;64.22;40.00;;;;;;;;;;4941742;29;20300;-87
2022/12/26 08:56:35;;;;;;;59.17;37.97;;;;;;;;;;4936959;29;20419;-87
2022/12/26 08:59:02;;;;;;;58.00;37.10;;;;;;;;;;4935140;29;20039;-87
2022/12/26 09:01:29;;;;;;;61.28;39.15;;;;;;;;;;4924528;29;20331;-87
2022/12/26 09:03:56;;;;;;;64.20;38.40;;;;;;;;;;4941588;29;20023;-90
2022/12/26 09:06:22;;;;;;;65.40;41.08;;;;;;;;;;4941576;29;20034;-86
2022/12/26 09:08:49;;;;;;;62.28;37.63;;;;;;;;;;4941493;29;20030;-87
2022/12/26 09:11:17;;;;;;;60.97;38.28;;;;;;;;;;4941335;29;20402;-86
2022/12/26 09:13:44;;;;;;;58.47;35.88;;;;;;;;;;4941523;29;20038;-88
2022/12/26 09:16:18;;;;;;;55.25;35.20;;;;;;;;;;4924367;29;20027;-87
2022/12/26 09:18:44;;;;;;;56.13;36.65;;;;;;;;;;4941214;29;20123;-87
2022/12/26 09:21:11;;;;;;;58.67;37.80;;;;;;;;;;4924451;29;20166;-87
2022/12/26 09:23:38;;;;;;;56.88;37.92;;;;;;;;;;4941225;29;20034;-87
2022/12/26 09:26:14;;;;;;;54.72;36.80;;;;;;;;;;4924471;29;20028;-87
2022/12/26 09:28:41;;;;;;;56.63;37.92;;;;;;;;;;4924154;29;20426;-87
2022/12/26 09:31:09;;;;;;;57.67;38.78;;;;;;;;;;4924168;29;20078;-88
2022/12/26 09:33:38;;;;;;;54.55;38.03;;;;;;;;;;4940979;29;20035;-87
2022/12/26 09:36:06;;;;;;;49.90;35.63;;;;;;;;;;4941094;29;20027;-87
2022/12/26 09:38:33;;;;;;;54.53;38.65;;;;;;;;;;4924046;29;20121;-87
2022/12/26 09:41:05;;;;;;;63.45;42.15;;;;;;;;;;4940686;29;20020;-87
2022/12/26 09:43:47;;;;;;;73.45;45.95;;;;;;;;;;4924210;29;20028;-87
2022/12/26 09:46:22;;;;;;;72.95;44.92;;;;;;;;;;4941100;29;20099;-87
2022/12/26 09:48:57;;;;;;;77.88;47.60;;;;;;;;;;4940663;29;20450;-86
2022/12/26 09:51:24;;;;;;;59.78;38.65;;;;;;;;;;4923919;29;20032;-88
2022/12/26 09:53:50;;;;;;;54.38;37.35;;;;;;;;;;4940630;29;20407;-86
2022/12/26 09:56:17;;;;;;;63.40;38.85;;;;;;;;;;4923747;29;20075;-87
2022/12/26 09:58:46;;;;;;;58.85;39.17;;;;;;;;;;4923816;29;20055;-85
2022/12/26 10:01:12;;;;;;;65.00;41.92;;;;;;;;;;4940517;29;20040;-86
2022/12/26 10:03:49;;;;;;;60.60;38.70;;;;;;;;;;4923468;29;20032;-86
2022/12/26 10:06:17;;;;;;;58.97;39.13;;;;;;;;;;4923725;29;20359;-87
2022/12/26 10:08:43;;;;;;;58.50;40.25;;;;;;;;;;4940319;29;20031;-87
2022/12/26 10:11:24;;;;;;;60.55;40.28;;;;;;;;;;4923837;29;20024;-89
2022/12/26 10:13:54;;;;;;;61.60;42.00;;;;;;;;;;4940658;29;20067;-89
2022/12/26 10:16:29;;;;;;;61.85;40.88;;;;;;;;;;4923619;29;20065;-90
2022/12/26 10:19:25;;;;;;;60.33;40.97;;;;;;;;;;4923368;29;20035;-88
2022/12/26 10:22:14;;;;;;;57.90;39.95;;;;;;;;;;4940496;29;20323;-90
2022/12/26 10:24:40;;;;;;;54.97;34.78;;;;;;;;;;4923553;29;20091;-89
2022/12/26 10:27:11;;;;;;;54.30;35.70;;;;;;;;;;4923648;29;20062;-90
2022/12/26 10:29:43;;;;;;;55.03;35.60;;;;;;;;;;4923453;29;20031;-89
2022/12/26 10:32:14;;;;;;;44.10;28.58;;;;;;;;;;4940424;29;20355;-88
2022/12/26 10:34:41;;;;;;;43.83;28.55;;;;;;;;;;4923486;29;20028;-88
2022/12/26 10:37:13;;;;;;;42.22;26.95;;;;;;;;;;4940172;29;20027;-89
2022/12/26 10:39:43;;;;;;;43.58;28.75;;;;;;;;;;4923500;29;20036;-89
2022/12/26 10:42:18;;;;;;;39.92;27.88;;;;;;;;;;4939907;29;20028;-89
2022/12/26 10:44:44;;;;;;;44.47;30.58;;;;;;;;;;4940413;29;20405;-88
2022/12/26 10:47:13;;;;;;;45.30;30.73;;;;;;;;;;4940286;29;20404;-89
2022/12/26 10:49:39;;;;;;;73.35;43.10;;;;;;;;;;4923357;29;20031;-89
2022/12/26 10:52:06;;;;;;;42.97;29.60;;;;;;;;;;4940147;29;20028;-89
2022/12/26 10:54:32;;;;;;;43.05;30.02;;;;;;;;;;4940168;29;20028;-89
2022/12/26 10:56:58;;;;;;;49.50;30.15;;;;;;;;;;4940056;29;20040;-89
2022/12/26 10:59:40;;;;;;;48.08;32.10;;;;;;;;;;4935697;29;20028;-88
2022/12/26 11:02:11;;;;;;;42.60;28.60;;;;;;;;;;4911994;29;20044;-88
2022/12/26 11:04:37;;;;;;;44.75;28.85;;;;;;;;;;4902289;29;20048;-88
2022/12/26 11:07:08;;;;;;;46.67;28.42;;;;;;;;;;4893486;29;20024;-88
2022/12/26 11:09:38;;;;;;;46.63;28.90;;;;;;;;;;4913321;29;20036;-88
2022/12/26 11:12:05;;;;;;;41.67;26.40;;;;;;;;;;4927635;29;20032;-88
2022/12/26 11:14:41;;;;;;;38.05;26.48;;;;;;;;;;4906700;29;20028;-89
2022/12/26 11:17:11;;;;;;;43.72;26.70;;;;;;;;;;4924462;29;20040;-90
2022/12/26 11:19:38;;;;;;;46.97;29.42;;;;;;;;;;4923952;29;20067;-89
2022/12/26 11:22:33;;;;;;;46.45;29.98;;;;;;;;;;4923799;29;20036;-88
2022/12/26 11:25:10;;;;;;;48.88;29.15;;;;;;;;;;4829705;29;20505;-89
2022/12/26 11:27:37;;;;;;;43.28;29.30;;;;;;;;;;4829748;29;20026;-87
2022/12/26 11:30:20;;;;;;;44.63;29.92;;;;;;;;;;4829748;29;20035;-89
2022/12/26 11:32:48;;;;;;;42.20;29.40;;;;;;;;;;4829454;29;20046;-88
2022/12/26 11:35:24;;;;;;;54.53;33.75;;;;;;;;;;4814406;29;20115;-89
2022/12/26 11:37:52;;;;;;;58.78;37.15;;;;;;;;;;4814270;29;20130;-89
2022/12/26 11:40:19;;;;;;;57.00;34.90;;;;;;;;;;4814303;29;20337;-89
2022/12/26 11:42:54;;;;;;;64.18;39.38;;;;;;;;;;4814016;29;20079;-88
2022/12/26 11:45:22;;;;;;;61.85;38.92;;;;;;;;;;4829086;29;20480;-86
2022/12/26 11:47:48;;;;;;;75.60;48.13;;;;;;;;;;4828974;29;20159;-86
2022/12/26 11:50:20;;;;;;;62.03;41.50;;;;;;;;;;4829367;29;20030;-86
2022/12/26 11:53:02;;;;;;;58.88;38.67;;;;;;;;;;4814197;29;20061;-86
2022/12/26 11:55:29;;;;;;;56.58;36.90;;;;;;;;;;4829060;29;20042;-87
2022/12/26 11:58:22;;;;;;;62.55;38.45;;;;;;;;;;4829182;29;20034;-86
2022/12/26 12:00:53;;;;;;;71.82;42.72;;;;;;;;;;4853684;29;20089;-86
2022/12/26 12:03:21;;;;;;;69.60;43.45;;;;;;;;;;4923657;29;20095;-86
2022/12/26 12:06:00;;;;;;;71.90;44.97;;;;;;;;;;4923679;29;20032;-87
2022/12/26 12:08:46;;;;;;;69.28;44.67;;;;;;;;;;4906931;29;20036;-86
2022/12/26 12:11:20;;;;;;;66.95;42.88;;;;;;;;;;4923465;29;20111;-86
2022/12/26 12:13:57;;;;;;;74.97;44.97;;;;;;;;;;4891393;29;20119;-86
2022/12/26 12:16:42;;;;;;;65.82;44.13;;;;;;;;;;4923339;29;20142;-87
2022/12/26 12:19:31;;;;;;;76.18;49.47;;;;;;;;;;4922889;29;20068;-87
2022/12/26 12:22:03;;;;;;;81.07;49.85;;;;;;;;;;4813379;29;20042;-86
2022/12/26 12:24:38;;;;;;;85.35;55.10;;;;;;;;;;4813277;29;20330;-86
2022/12/26 12:27:04;;;;;;;91.75;54.85;;;;;;;;;;4828202;29;20035;-85
2022/12/26 12:29:33;;;;;;;81.38;52.63;;;;;;;;;;4813484;29;20043;-85
2022/12/26 12:31:59;;;;;;;68.75;47.97;;;;;;;;;;4813450;29;20030;-87
2022/12/26 12:34:44;;;;;;;60.58;42.65;;;;;;;;;;4828548;29;20058;-87
2022/12/26 12:37:16;;;;;;;60.22;42.00;;;;;;;;;;4828426;29;20042;-86
2022/12/26 12:40:02;;;;;;;64.32;44.97;;;;;;;;;;4828264;29;20604;-86
2022/12/26 12:42:30;;;;;;;61.65;42.40;;;;;;;;;;4828522;29;20117;-86
2022/12/26 12:45:04;;;;;;;62.05;40.45;;;;;;;;;;4813127;29;20047;-86
2022/12/26 12:47:54;;;;;;;57.95;39.40;;;;;;;;;;4812998;29;20061;-87
2022/12/26 12:50:20;;;;;;;58.00;40.78;;;;;;;;;;4828374;29;20042;-87
2022/12/26 12:52:51;;;;;;;61.88;40.33;;;;;;;;;;4828257;29;20122;-86
2022/12/26 12:55:36;;;;;;;75.80;45.47;;;;;;;;;;4813265;29;20073;-87
2022/12/26 12:58:22;;;;;;;70.00;43.22;;;;;;;;;;4825543;29;20038;-86
2022/12/26 13:00:58;;;;;;;64.28;41.83;;;;;;;;;;4905857;29;20028;-86
2022/12/26 13:03:33;;;;;;;58.55;40.33;;;;;;;;;;4922745;29;20024;-86
2022/12/26 13:06:02;;;;;;;68.32;43.50;;;;;;;;;;4905828;29;20032;-86
2022/12/26 13:08:47;;;;;;;71.93;45.15;;;;;;;;;;4905712;29;20047;-85
2022/12/26 13:11:26;;;;;;;62.58;39.88;;;;;;;;;;4905574;29;20070;-86
2022/12/26 13:13:54;;;;;;;61.50;41.28;;;;;;;;;;4922329;29;20080;-86
2022/12/26 13:16:24;;;;;;;69.55;45.13;;;;;;;;;;4922458;29;20339;-86
2022/12/26 13:19:05;;;;;;;75.90;47.33;;;;;;;;;;4922262;29;20062;-86
2022/12/26 13:21:34;;;;;;;66.68;44.30;;;;;;;;;;4922142;29;20028;-85
2022/12/26 13:24:22;;;;;;;61.80;40.53;;;;;;;;;;4905474;29;20024;-86
2022/12/26 13:27:02;;;;;;;63.80;41.38;;;;;;;;;;4905458;29;20420;-84
2022/12/26 13:29:30;;;;;;;71.00;43.88;;;;;;;;;;4922168;29;20056;-84
2022/12/26 13:32:00;;;;;;;84.40;51.63;;;;;;;;;;4905332;29;20028;-83
2022/12/26 13:34:27;;;;;;;78.53;50.35;;;;;;;;;;4921970;29;20032;-83
2022/12/26 13:36:54;;;;;;;67.78;41.22;;;;;;;;;;4905212;29;20036;-84
2022/12/26 13:39:20;;;;;;;59.17;39.00;;;;;;;;;;4904949;29;20434;-84
2022/12/26 13:44:34;;;;;;;73.35;42.30;;;;;;;;;;4922275;29;20052;-84
2022/12/26 13:47:00;;;;;;;66.55;45.38;;;;;;;;;;4921525;29;20036;-84
2022/12/26 13:49:34;;;;;;;73.95;48.53;;;;;;;;;;4904844;29;20024;-83
2022/12/26 13:52:09;;;;;;;92.13;59.10;;;;;;;;;;4904947;29;20076;-83
2022/12/26 13:54:56;;;;;;;103.93;71.28;;;;;;;;;;4904917;29;20035;-84
2022/12/26 13:57:25;;;;;;;100.60;68.43;;;;;;;;;;4921205;29;20039;-83
2022/12/26 13:59:51;;;;;;;84.57;60.17;;;;;;;;;;4921389;29;20036;-83
2022/12/26 14:02:17;;;;;;;78.72;54.80;;;;;;;;;;4921646;29;20031;-84
2022/12/26 14:04:58;;;;;;;77.75;52.58;;;;;;;;;;4904755;29;20025;-83
2022/12/26 14:07:53;;;;;;;80.33;56.87;;;;;;;;;;4904660;29;20449;-84
2022/12/26 14:10:23;;;;;;;76.93;52.80;;;;;;;;;;4826998;29;20062;-84
2022/12/26 14:12:52;;;;;;;77.38;49.30;;;;;;;;;;4826547;29;20026;-84
2022/12/26 14:15:21;;;;;;;71.57;49.72;;;;;;;;;;4827100;29;20471;-84
2022/12/26 14:17:50;;;;;;;71.00;49.83;;;;;;;;;;4827069;29;20042;-84
2022/12/26 14:20:25;;;;;;;64.43;43.60;;;;;;;;;;4826427;29;20136;-84
2022/12/26 14:22:57;;;;;;;66.10;47.05;;;;;;;;;;4827094;29;20037;-84
2022/12/26 14:25:23;;;;;;;89.60;60.33;;;;;;;;;;4826517;29;20151;-83
2022/12/26 14:27:53;;;;;;;81.05;54.13;;;;;;;;;;4811445;29;20117;-83
2022/12/26 14:30:21;;;;;;;82.32;55.15;;;;;;;;;;4826825;29;20034;-86
2022/12/26 14:33:16;;;;;;;88.97;60.08;;;;;;;;;;4826803;29;20030;-85
2022/12/26 14:35:51;;;;;;;165.68;123.13;;;;;;;;;;4772449;30;20051;-85
2022/12/26 14:38:36;;;;;;;178.65;135.00;;;;;;;;;;4772385;30;20040;-85
2022/12/26 14:41:05;;;;;;;524.88;350.90;;;;;;;;;;4772444;30;20039;-84
2022/12/26 14:43:31;;;;;;;265.10;165.63;;;;;;;;;;4772446;30;20063;-84
2022/12/26 14:45:57;;;;;;;218.40;137.32;;;;;;;;;;4776563;29;20040;-84
2022/12/26 14:48:23;;;;;;;619.53;450.75;;;;;;;;;;4864094;29;20365;-85
2022/12/26 14:50:49;;;;;;;195.43;120.72;;;;;;;;;;4851217;29;20480;-85
2022/12/26 14:53:28;;;;;;;208.95;125.35;;;;;;;;;;4867312;29;20051;-85
2022/12/26 14:55:54;;;;;;;514.88;308.13;;;;;;;;;;4867191;29;20037;-85
2022/12/26 14:58:31;;;;;;;271.50;152.25;;;;;;;;;;4866952;29;20050;-85
2022/12/26 15:01:14;;;;;;;1373.57;748.45;;;;;;;;;;4851507;29;20029;-85
2022/12/26 15:03:51;;;;;;;293.73;152.32;;;;;;;;;;4851426;29;20030;-86
2022/12/26 15:06:21;;;;;;;791.00;449.50;;;;;;;;;;4851340;29;20445;-85
2022/12/26 15:09:06;;;;;;;360.73;182.10;;;;;;;;;;4866919;29;20030;-85
2022/12/26 15:11:38;;;;;;;795.22;441.98;;;;;;;;;;4882533;29;20075;-86
2022/12/26 15:14:16;;;;;;;1002.45;557.10;;;;;;;;;;4924511;29;20024;-85
2022/12/26 15:16:55;;;;;;;562.25;303.92;;;;;;;;;;4924450;29;20062;-86
2022/12/26 15:19:21;;;;;;;422.35;200.55;;;;;;;;;;4907602;29;20405;-86
2022/12/26 15:21:50;;;;;;;1392.45;721.63;;;;;;;;;;4907143;29;20424;-85
2022/12/26 15:24:19;;;;;;;667.22;353.67;;;;;;;;;;4924647;29;20036;-86
2022/12/26 15:26:55;;;;;;;644.63;332.33;;;;;;;;;;4924551;29;20416;-86
2022/12/26 15:29:24;;;;;;;699.53;361.75;;;;;;;;;;4907557;29;20404;-86
2022/12/26 15:32:03;;;;;;;859.45;478.05;;;;;;;;;;4924108;29;20028;-86
2022/12/26 15:34:38;;;;;;;745.60;418.85;;;;;;;;;;4907552;29;20043;-86
2022/12/26 15:37:17;;;;;;;945.30;562.72;;;;;;;;;;4906925;29;20481;-86
2022/12/26 15:40:02;;;;;;;613.50;365.15;;;;;;;;;;4907750;29;20327;-86
2022/12/26 15:42:49;;;;;;;1860.43;863.70;;;;;;;;;;4923897;29;20103;-86
2022/12/26 15:45:33;;;;;;;638.20;337.52;;;;;;;;;;4924022;29;20072;-86
2022/12/26 15:47:59;;;;;;;558.58;279.83;;;;;;;;;;4907065;29;20043;-85
2022/12/26 15:50:28;;;;;;;832.00;458.83;;;;;;;;;;4924375;29;20340;-86
2022/12/26 15:53:00;;;;;;;1500.00;759.38;;;;;;;;;;4907281;29;20039;-86
2022/12/26 15:55:26;;;;;;;;;;;;;;;;;;4924469;29;20032;-86
2022/12/26 15:58:02;;;;;;;369.58;165.82;;;;;;;;;;4907384;29;20246;-86
2022/12/26 16:00:46;;;;;;;851.80;406.33;;;;;;;;;;4905889;29;20067;-85
2022/12/26 16:03:29;;;;;;;687.97;305.92;;;;;;;;;;4901650;29;20043;-85
2022/12/26 16:06:04;;;;;;;1175.10;487.27;;;;;;;;;;4902400;29;20040;-86
2022/12/26 16:08:39;;;;;;;750.10;306.25;;;;;;;;;;4907051;29;20072;-86
2022/12/26 16:11:08;;;;;;;1182.00;487.20;;;;;;;;;;4923515;29;20031;-86
2022/12/26 16:13:34;;;;;;;586.30;236.70;;;;;;;;;;4923533;29;20040;-86
2022/12/26 16:16:00;;;;;;;769.92;346.05;;;;;;;;;;4906291;29;20427;-86
2022/12/26 16:18:28;;;;;;;1196.88;570.88;;;;;;;;;;4923181;29;20036;-85
2022/12/26 16:23:41;;;;;;;357.50;166.52;;;;;;;;;;4922473;29;20060;-87
2022/12/26 16:26:07;;;;;;;597.33;317.80;;;;;;;;;;4922959;29;20047;-86
2022/12/26 16:28:38;;;;;;;701.65;372.30;;;;;;;;;;4906593;29;20028;-86
2022/12/26 16:31:05;;;;;;;375.90;183.97;;;;;;;;;;4923484;29;20024;-86
2022/12/26 16:33:34;;;;;;;471.98;232.38;;;;;;;;;;4905039;29;20279;-85
2022/12/26 16:36:00;;;;;;;379.92;191.95;;;;;;;;;;4904538;29;20040;-86
2022/12/26 16:38:28;;;;;;;256.75;133.38;;;;;;;;;;4914499;29;20028;-86
2022/12/26 16:40:56;;;;;;;248.70;122.57;;;;;;;;;;4905921;29;20157;-86
2022/12/26 16:43:24;;;;;;;261.75;129.65;;;;;;;;;;4921642;29;20056;-87
2022/12/26 16:45:52;;;;;;;348.88;164.63;;;;;;;;;;4912747;29;20051;-87
2022/12/26 16:48:20;;;;;;;235.48;119.43;;;;;;;;;;4887479;29;20468;-86
2022/12/26 16:50:54;;;;;;;200.90;108.40;;;;;;;;;;4906096;29;20048;-85
2022/12/26 16:53:22;;;;;;;157.65;91.72;;;;;;;;;;4922513;29;20040;-86